Synop

Synop-termin pośredni Polska


477
SIPL20 SOWR 200300
AAXX 20031
12120 42578 51402 10101 20090 30208 40215 57010 81232=
12140 41557 71403 10110 20107 30216 40225 57008 72582 873//=
12205 42970 52102 10122 20113 30197 40205 56010 83032=
12250 42960 50000 10067 20064 30141 40231 55004 84031=
12295 42967 53301 10117 20106 30032 40214 53002 85070=
12330 42960 30000 10101 20082 30120 40228 56005 81032=
12375 42980 43302 10110 20084 30095 40225 55000 84030=
12424 41956 10000 10078 20074 30077 40231 58005 72840 80001=
12465 41906 10000 10073 20073 39999 40233 55003 74600 81030=
12560 41640 12301 10082 20082 39899 40241 53001 71100 81500=
12695 NIL=
478
SIPL30 SOWR 200300
AAXX 20031
12100 NIL=
12105 42561 61403 10108 20102 30170 40212 57010 84230=
12135 41550 71502 10100 20100 30220 40223 57008 78082 872//
  333 87823=
12185 46/03 /0901 10062 20062 30103 40237 54000=
12195 42968 10202 10088 20079 39999 40227 55001 80001=
12235 41458 81802 10089 20078 30017 40228 56007 71022 84507=
12270 42967 40301 10072 20065 30048 40231 58003 80006=
12300 42962 31501 10108 20094 30125 40214 57008 81081=
12360 41956 10501 10061 20046 30096 40231 57004 71000 81030=
12385 42566 73002 10115 20107 30031 40219 53004 8353/=
12400 42965 21403 10110 20099 39987 40221 57004 81038=
12435 41922 31301 10083 20079 30062 40235 55004 71000 80004=
12495 41230 83303 10131 20126 39926 40214 53005 71082 886//=
12510 42198 42502 10062 20007 38434 48550 58006 81508
  444 37113=
12520 41903 01502 10057 20053 39806 40245 58006 74444 =
12570 41625 63202 10111 20108 39912 40228 53002 74011 83556=
12575 41650 82801 10136 20128 39972 40223 52001 71022 885//=
12595 NIL=
479
SIPL40 SOWR 200300
AAXX 20031
12115 42465 31904 10116 20111 30197 40211 57009 82508=
12125 46/// /1202 10102 20097 30170 40219 57012=
12200 41956 41902 10127 20124 30196 40202 57011 71000 83071=
12215 36/// /9901 10092 20082 30054 40224 57007=
12272 41/02 90000 10059 20055 30067 40236 58003 74700 =
12280 42961 23202 10076 20070 30075 40233 52002 80001=
12285 NIL=
12345 41920 23302 10082 20073 30088 40233 56005 71000 80002=
12415 41970 40701 10084 20084 30072 40225 56005 71100 80006=
12455 41001 80000 10075 20072 39988 40235 56006 74244 886//=
12497 41240 83503 10141 20141 39985 40200 57002 71022 886//=
12500 41901 01301 10059 20059 39820 40242 58005 74644 =
12530 41903 01601 10063 20060 30036 40238 55003 74244 =
12550 41935 03401 10107 20107 39878 40235 55001 71000 =
12580 41350 73004 10145 20139 39959 40214 51002 71022 875//
  333 84707=
12585 41958 73204 10133 20124 39952 40215 52003 71011 8703/=
12600 41410 80000 10114 20112 39760 40239 55000 71022 885//=
12650 41900 10602 10035 20035 38050 48547 55004 74600 80001=
12660 41540 83501 10141 20123 39875 40229 53001 71022 885//=
480
SIPL50 SOWR 200300
AAXX 20031
12160 41456 61901 10091 20077 30173 40226 58009 71011 86500=
12210 46/// /1001 10119 20105 30145 40208 57013=
12230 41958 50000 10079 20073 30135 40226 56004 71011 83052=
12310 41945 20000 10087 20082 30183 40213 56006 71200 82051=
12399 41556 83202 10140 20138 30038 40203 54000 71082 885//=
12418 41956 11202 10068 20064 30112 40227 57007 71000 81081=
12469 41901 13201 10097 20092 39998 40229 55001 74600 81030=
12488 42575 83003 10128 20109 30066 40219 51003 885//=
12540 41922 02301 10075 20072 39987 40242 53001 71000 =
12566 41906 00000 10091 20088 39948 40239 53004 74611 =
12625 41320 80000 10104 20099 39241 42849 53001 75155 886//=
12670 41220 82902 10136 20133 39825 40220 53002 71022 886//
  333 88792=
12690 41419 82801 10133 20131 39717 40217 53002 71022 885//=




Instytut Meteorologii i Gospodarki Wodnej nie ponosi odpowiedzialności za jakiekolwiek straty spowodowane stosowaniem danych przedstawionych w serwisie WWW.
Dane i Produkty chronione prawem autorskim IMGW. Jakiekolwiek wykorzystywanie lub rozpowszechnianie zabronione.


Powrót do listy produktów